Time;durP1;ratioP1;P1;durP2;ratioP2;P2;SDS_P1;SDS_P2;PMS_P1;PMS_P2;Temp;Humidity;BMP_temperature;BMP_pressure;BME280_temperature;BME280_humidity;BME280_pressure;Samples;Min_cycle;Max_cycle;Signal;HPM_P1;HPM_P2
2022/10/05 00:00:19;;;;;;;10.70;8.20;;;10.60;88.30;;;;;;4957812;28;20521;-87
2022/10/05 00:02:48;;;;;;;10.13;7.50;;;10.60;87.70;;;;;;4951366;28;20581;-86
2022/10/05 00:05:20;;;;;;;11.20;9.07;;;10.60;87.60;;;;;;4974176;28;20896;-86
2022/10/05 00:07:47;;;;;;;11.57;8.60;;;10.60;87.50;;;;;;4958853;28;20478;-87
2022/10/05 00:10:17;;;;;;;14.00;8.33;;;10.60;87.60;;;;;;4957313;28;20529;-86
2022/10/05 00:12:45;;;;;;;10.43;8.17;;;10.60;87.30;;;;;;4955832;28;20470;-87
2022/10/05 00:15:15;;;;;;;11.03;8.27;;;10.70;87.20;;;;;;4974220;28;20474;-87
2022/10/05 00:17:42;;;;;;;11.83;8.47;;;10.70;87.20;;;;;;4954487;28;20517;-87
2022/10/05 00:20:27;;;;;;;12.47;8.67;;;10.70;87.30;;;;;;4954166;28;20466;-87
2022/10/05 00:23:00;;;;;;;11.53;8.90;;;10.60;87.70;;;;;;4955178;28;20735;-86
2022/10/05 00:25:27;;;;;;;10.20;8.63;;;10.60;87.70;;;;;;4972078;28;20923;-86
2022/10/05 00:27:59;;;;;;;13.00;9.13;;;10.60;87.90;;;;;;4951395;28;20466;-87
2022/10/05 00:30:31;;;;;;;13.80;9.13;;;10.60;87.80;;;;;;4970745;28;20464;-86
2022/10/05 00:32:58;;;;;;;18.03;10.30;;;10.60;87.70;;;;;;4956204;28;20474;-86
2022/10/05 00:35:28;;;;;;;17.33;11.80;;;10.60;87.40;;;;;;4972587;28;20524;-87
2022/10/05 00:37:55;;;;;;;11.60;8.90;;;10.60;87.40;;;;;;4952428;28;20873;-86
2022/10/05 00:40:35;;;;;;;9.67;8.67;;;10.60;87.60;;;;;;4971789;28;20462;-87
2022/10/05 00:43:23;;;;;;;17.23;9.60;;;10.60;87.50;;;;;;4952086;28;20466;-87
2022/10/05 00:45:54;;;;;;;9.90;8.90;;;10.60;87.30;;;;;;4951603;28;20466;-87
2022/10/05 00:48:44;;;;;;;9.63;7.73;;;10.60;87.50;;;;;;4972554;28;20474;-87
2022/10/05 00:51:23;;;;;;;10.87;8.50;;;10.60;87.70;;;;;;4971908;28;20482;-87
2022/10/05 00:54:02;;;;;;;9.33;7.60;;;10.60;87.70;;;;;;4971532;28;20465;-86
2022/10/05 00:56:43;;;;;;;16.30;10.90;;;10.60;87.10;;;;;;4955665;28;20513;-87
2022/10/05 00:59:38;;;;;;;9.83;8.30;;;10.60;87.10;;;;;;4968243;28;20482;-87
2022/10/05 01:02:16;;;;;;;13.33;9.00;;;10.50;87.40;;;;;;4968168;28;20458;-87
2022/10/05 01:05:11;;;;;;;10.50;8.43;;;10.50;87.70;;;;;;4954100;28;20475;-87
2022/10/05 01:07:50;;;;;;;15.00;9.97;;;10.50;87.50;;;;;;4933506;28;20458;-86
2022/10/05 01:10:34;;;;;;;10.93;9.77;;;10.50;87.30;;;;;;4954669;28;20497;-87
2022/10/05 01:13:26;;;;;;;13.97;9.37;;;10.50;87.00;;;;;;4973497;28;20458;-86
2022/10/05 01:16:05;;;;;;;9.37;8.37;;;10.50;86.70;;;;;;4955195;28;20528;-87
2022/10/05 01:18:40;;;;;;;14.07;9.23;;;10.40;87.30;;;;;;4971511;28;20533;-87
2022/10/05 01:21:19;;;;;;;14.10;9.20;;;10.40;87.70;;;;;;4954152;28;20528;-87
2022/10/05 01:23:54;;;;;;;11.97;9.40;;;10.40;87.30;;;;;;4966342;28;20466;-87
2022/10/05 01:26:43;;;;;;;10.00;9.00;;;10.40;87.50;;;;;;4972925;28;20470;-86
2022/10/05 01:29:27;;;;;;;16.10;9.67;;;10.50;86.80;;;;;;4954780;28;20508;-87
2022/10/05 01:32:08;;;;;;;10.93;9.23;;;10.50;86.50;;;;;;4967892;28;20536;-86
2022/10/05 01:34:51;;;;;;;13.37;8.93;;;10.50;86.40;;;;;;4954351;28;20489;-87
2022/10/05 01:37:36;;;;;;;12.80;8.70;;;10.40;86.80;;;;;;4971829;28;20524;-87
2022/10/05 01:40:23;;;;;;;13.00;9.67;;;10.40;87.10;;;;;;4956222;28;20461;-87
2022/10/05 01:43:25;;;;;;;24.30;16.80;;;10.30;87.40;;;;;;4972031;28;20490;-87
2022/10/05 01:46:03;;;;;;;34.50;22.13;;;10.20;87.90;;;;;;4970667;28;20573;-87
2022/10/05 01:49:10;;;;;;;22.27;16.17;;;10.10;88.00;;;;;;4970473;28;20501;-87
2022/10/05 01:51:53;;;;;;;23.10;14.13;;;10.00;88.10;;;;;;4973283;28;20458;-87
2022/10/05 01:54:27;;;;;;;18.83;12.23;;;10.10;88.30;;;;;;4967520;28;20482;-86
2022/10/05 01:57:16;;;;;;;12.50;8.90;;;10.20;87.20;;;;;;4952460;28;20490;-86
2022/10/05 02:00:00;;;;;;;17.87;10.57;;;10.20;86.70;;;;;;4948228;28;20506;-87
2022/10/05 02:02:30;;;;;;;13.77;9.20;;;10.20;86.90;;;;;;4950314;28;20461;-87
2022/10/05 02:05:12;;;;;;;10.43;9.33;;;10.10;87.20;;;;;;4970157;28;20513;-87
2022/10/05 02:07:45;;;;;;;13.13;9.87;;;10.10;87.00;;;;;;4950892;28;20462;-87
2022/10/05 02:10:37;;;;;;;13.60;9.67;;;10.10;86.90;;;;;;4949867;28;20846;-87
2022/10/05 02:13:11;;;;;;;16.30;10.13;;;10.20;86.60;;;;;;4944224;28;20524;-87
2022/10/05 02:15:45;;;;;;;12.83;9.20;;;10.20;86.10;;;;;;4952165;28;20896;-87
2022/10/05 02:18:18;;;;;;;12.20;8.87;;;10.20;86.20;;;;;;4953063;28;20494;-87
2022/10/05 02:20:45;;;;;;;11.80;8.50;;;10.10;86.40;;;;;;4970773;28;20549;-87
2022/10/05 02:23:19;;;;;;;12.70;9.10;;;10.00;86.80;;;;;;4955046;28;21275;-87
2022/10/05 02:25:49;;;;;;;11.93;8.80;;;9.90;86.90;;;;;;4962379;28;20521;-87
2022/10/05 02:28:19;;;;;;;10.43;9.30;;;9.80;87.20;;;;;;4950865;28;20473;-87
2022/10/05 02:31:09;;;;;;;10.17;9.03;;;9.90;87.50;;;;;;4955195;28;20470;-87
2022/10/05 02:33:36;;;;;;;13.50;9.40;;;10.00;86.80;;;;;;4952070;28;20462;-87
2022/10/05 02:36:14;;;;;;;12.03;9.43;;;10.00;86.60;;;;;;4951743;28;20906;-86
2022/10/05 02:39:13;;;;;;;11.00;8.53;;;9.90;86.80;;;;;;4967890;28;20541;-87
2022/10/05 02:42:01;;;;;;;13.60;8.73;;;9.90;86.70;;;;;;4969081;28;20458;-86
2022/10/05 02:44:32;;;;;;;11.23;8.93;;;9.90;86.80;;;;;;4970096;28;20508;-87
2022/10/05 02:47:09;;;;;;;11.73;8.37;;;9.90;86.60;;;;;;4952408;28;20458;-87
2022/10/05 02:49:52;;;;;;;11.90;8.63;;;10.00;86.10;;;;;;4952848;28;20481;-87
2022/10/05 02:52:50;;;;;;;12.80;8.80;;;9.90;86.40;;;;;;4951662;28;20489;-88
2022/10/05 02:55:23;;;;;;;12.83;9.40;;;9.90;86.40;;;;;;4915123;28;20483;-87
2022/10/05 02:58:04;;;;;;;11.17;9.43;;;9.80;86.50;;;;;;4945297;28;20537;-88
2022/10/05 03:00:39;;;;;;;14.13;10.47;;;9.70;87.30;;;;;;4970378;28;20458;-88
2022/10/05 03:03:13;;;;;;;12.80;10.43;;;9.80;86.70;;;;;;4967786;28;20474;-88
2022/10/05 03:05:49;;;;;;;13.90;10.20;;;9.80;86.60;;;;;;4969168;28;20457;-88
2022/10/05 03:08:26;;;;;;;12.97;9.77;;;9.80;87.00;;;;;;4954812;28;20478;-87
2022/10/05 03:11:21;;;;;;;11.77;9.10;;;9.80;87.20;;;;;;4969919;28;20462;-88
2022/10/05 03:14:05;;;;;;;11.37;9.17;;;9.70;87.20;;;;;;4952595;28;20501;-88
2022/10/05 03:16:59;;;;;;;13.77;9.77;;;9.70;87.50;;;;;;4969825;28;20968;-87
2022/10/05 03:19:53;;;;;;;14.50;8.73;;;9.70;88.00;;;;;;4950530;28;21086;-88
2022/10/05 03:22:27;;;;;;;14.80;10.70;;;9.70;87.90;;;;;;4954048;28;20470;-88
2022/10/05 03:25:42;;;;;;;10.63;9.20;;;9.70;87.90;;;;;;4951786;28;20517;-88
2022/10/05 03:28:14;;;;;;;15.00;9.70;;;9.70;87.60;;;;;;4948718;28;20882;-88
2022/10/05 03:31:03;;;;;;;13.90;10.50;;;9.70;87.60;;;;;;4957969;28;20494;-88
2022/10/05 03:33:36;;;;;;;12.20;10.20;;;9.60;88.10;;;;;;4953231;28;20509;-88
2022/10/05 03:36:16;;;;;;;15.37;10.90;;;9.60;88.40;;;;;;4950489;28;20836;-87
2022/10/05 03:38:54;;;;;;;15.93;9.37;;;9.50;88.80;;;;;;4969404;28;20493;-88
2022/10/05 03:41:39;;;;;;;13.97;9.23;;;9.50;89.00;;;;;;4969610;28;20446;-88
2022/10/05 03:44:44;;;;;;;11.23;9.33;;;9.50;89.30;;;;;;4968571;28;20500;-87
2022/10/05 03:47:24;;;;;;;10.10;8.40;;;9.50;89.40;;;;;;4927530;29;20459;-88
2022/10/05 03:50:02;;;;;;;15.33;10.40;;;9.40;89.70;;;;;;4906830;29;20481;-87
2022/10/05 03:52:38;;;;;;;14.07;10.50;;;9.40;89.80;;;;;;4937899;28;20950;-88
2022/10/05 03:55:20;;;;;;;12.63;9.60;;;9.50;89.80;;;;;;4953695;28;20492;-87
2022/10/05 03:57:49;;;;;;;13.27;10.27;;;9.40;89.80;;;;;;4951769;28;20466;-88
2022/10/05 04:00:22;;;;;;;13.63;9.40;;;9.50;89.80;;;;;;4951271;28;20513;-88
2022/10/05 04:02:59;;;;;;;16.40;9.57;;;9.70;89.80;;;;;;4952649;28;20999;-87
2022/10/05 04:05:40;;;;;;;19.40;9.83;;;9.80;89.80;;;;;;4952376;28;21185;-88
2022/10/05 04:08:15;;;;;;;15.73;10.10;;;9.90;89.80;;;;;;4967828;28;20475;-87
2022/10/05 04:10:54;;;;;;;14.73;10.07;;;9.90;89.80;;;;;;4968437;28;21034;-87
2022/10/05 04:13:36;;;;;;;15.00;9.70;;;9.80;89.80;;;;;;4967568;28;20505;-88
2022/10/05 04:16:16;;;;;;;13.83;9.77;;;9.90;89.80;;;;;;4953099;28;20483;-87
2022/10/05 04:18:49;;;;;;;12.67;8.97;;;9.80;89.80;;;;;;4946962;28;20588;-88
2022/10/05 04:21:28;;;;;;;17.50;10.10;;;9.80;89.80;;;;;;4966817;28;20497;-88
2022/10/05 04:24:27;;;;;;;12.60;9.00;;;9.70;89.80;;;;;;4969261;28;20568;-88
2022/10/05 04:26:59;;;;;;;12.27;8.90;;;9.60;89.80;;;;;;4967168;28;20541;-87
2022/10/05 04:29:37;;;;;;;12.13;9.23;;;9.60;89.80;;;;;;4969356;28;20537;-88
2022/10/05 04:32:22;;;;;;;14.57;9.37;;;9.80;89.80;;;;;;4966907;28;20501;-88
2022/10/05 04:35:11;;;;;;;11.60;8.00;;;9.90;89.80;;;;;;4952977;28;20524;-87
2022/10/05 04:38:24;;;;;;;16.07;9.53;;;9.80;89.80;;;;;;4955167;28;20490;-87
2022/10/05 04:41:15;;;;;;;13.40;8.80;;;9.80;89.80;;;;;;4931971;29;20491;-88
2022/10/05 04:43:54;;;;;;;12.73;9.80;;;9.90;89.80;;;;;;4914446;29;20919;-87
2022/10/05 04:47:00;;;;;;;13.80;10.53;;;10.00;89.80;;;;;;4949481;28;20470;-87
2022/10/05 04:49:52;;;;;;;14.73;10.40;;;10.00;89.80;;;;;;4969245;28;20506;-88
2022/10/05 04:52:50;;;;;;;16.47;11.33;;;10.00;89.80;;;;;;4954088;28;20505;-87
2022/10/05 04:56:04;;;;;;;14.87;10.70;;;9.90;89.80;;;;;;4954687;28;20470;-88
2022/10/05 04:58:39;;;;;;;15.57;11.90;;;9.90;89.80;;;;;;4913541;28;20518;-88
2022/10/05 05:01:17;;;;;;;12.17;9.87;;;10.00;89.80;;;;;;4953400;28;20512;-87
2022/10/05 05:03:59;;;;;;;16.00;10.50;;;10.00;89.80;;;;;;4971512;28;20462;-88
2022/10/05 05:06:41;;;;;;;14.10;9.70;;;10.00;89.80;;;;;;4973383;28;20508;-87
2022/10/05 05:09:24;;;;;;;16.77;11.57;;;10.10;89.80;;;;;;4951464;28;20525;-87
2022/10/05 05:11:57;;;;;;;14.30;10.60;;;10.10;89.80;;;;;;4971138;28;20466;-87
2022/10/05 05:14:34;;;;;;;19.23;12.50;;;10.00;89.80;;;;;;4967991;28;20555;-87
2022/10/05 05:17:10;;;;;;;19.73;13.80;;;10.00;89.80;;;;;;4947172;28;21019;-88
2022/10/05 05:20:00;;;;;;;17.73;12.53;;;10.00;89.80;;;;;;4951212;28;20511;-87
2022/10/05 05:22:54;;;;;;;20.60;13.03;;;10.00;89.80;;;;;;4971265;28;20490;-87
2022/10/05 05:25:30;;;;;;;18.33;12.37;;;10.00;89.80;;;;;;4970456;28;21470;-87
2022/10/05 05:28:07;;;;;;;20.90;14.63;;;10.10;89.80;;;;;;4971701;28;21498;-87
2022/10/05 05:30:49;;;;;;;21.70;13.47;;;10.20;89.80;;;;;;4967367;28;21014;-87
2022/10/05 05:33:22;;;;;;;20.60;14.20;;;10.20;89.80;;;;;;4969784;28;20470;-87
2022/10/05 05:35:55;;;;;;;22.03;14.03;;;10.20;89.80;;;;;;4969670;28;20501;-87
2022/10/05 05:38:31;;;;;;;18.00;12.73;;;10.30;89.80;;;;;;4966768;28;20518;-87
2022/10/05 05:41:09;;;;;;;18.67;13.57;;;10.40;89.80;;;;;;4951871;28;20469;-87
2022/10/05 05:43:58;;;;;;;22.80;13.80;;;10.40;89.80;;;;;;4969844;28;20462;-87
2022/10/05 05:46:31;;;;;;;25.10;13.60;;;10.40;89.80;;;;;;4969282;28;20538;-87
2022/10/05 05:49:26;;;;;;;19.40;14.80;;;10.50;89.80;;;;;;4955588;28;20450;-87
2022/10/05 05:52:03;;;;;;;23.57;15.07;;;10.50;89.80;;;;;;4970970;28;20457;-88
2022/10/05 05:54:36;;;;;;;23.80;16.97;;;10.50;89.80;;;;;;4952949;28;20493;-87
2022/10/05 05:57:20;;;;;;;21.30;14.90;;;10.50;89.80;;;;;;4952072;28;20506;-88
2022/10/05 05:59:59;;;;;;;19.23;13.80;;;10.60;89.80;;;;;;4971889;28;20999;-87
2022/10/05 06:02:38;;;;;;;17.07;12.90;;;10.60;89.80;;;;;;4949017;28;20467;-87
2022/10/05 06:05:27;;;;;;;17.40;12.43;;;10.70;89.80;;;;;;4951997;28;20462;-87
2022/10/05 06:07:57;;;;;;;30.97;16.97;;;10.70;89.80;;;;;;4967643;28;20462;-87
2022/10/05 06:10:42;;;;;;;25.40;15.27;;;10.70;89.80;;;;;;4971155;28;20617;-87
2022/10/05 06:13:18;;;;;;;26.23;15.00;;;10.60;89.80;;;;;;4972214;28;20528;-87
2022/10/05 06:16:13;;;;;;;28.37;15.80;;;10.60;89.80;;;;;;4968208;28;20517;-87
2022/10/05 06:18:43;;;;;;;32.03;14.30;;;10.60;89.80;;;;;;4933976;28;20874;-87
2022/10/05 06:21:38;;;;;;;34.83;18.40;;;10.60;89.80;;;;;;4954024;28;20501;-87
2022/10/05 06:24:15;;;;;;;37.33;17.70;;;10.60;89.80;;;;;;4939938;28;20486;-87
2022/10/05 06:27:08;;;;;;;30.70;17.53;;;10.70;89.80;;;;;;4969942;28;21260;-87
2022/10/05 06:29:57;;;;;;;34.20;16.80;;;10.80;89.80;;;;;;4971194;28;20501;-87
2022/10/05 06:32:46;;;;;;;37.40;18.37;;;10.80;89.80;;;;;;4955916;28;20549;-87
2022/10/05 06:35:35;;;;;;;33.07;18.07;;;10.80;89.80;;;;;;4950459;28;20569;-88
2022/10/05 06:38:33;;;;;;;38.00;20.30;;;10.80;89.80;;;;;;4954273;28;20493;-87
2022/10/05 06:41:07;;;;;;;34.90;17.90;;;10.90;89.80;;;;;;4971640;28;20490;-87
2022/10/05 06:44:04;;;;;;;36.07;17.83;;;11.00;89.80;;;;;;4967452;28;20505;-87
2022/10/05 06:46:39;;;;;;;35.77;17.23;;;11.00;89.80;;;;;;4948142;28;20458;-87
2022/10/05 06:49:28;;;;;;;40.80;19.53;;;11.10;89.80;;;;;;4953326;28;20508;-87
2022/10/05 06:52:11;;;;;;;37.90;17.77;;;11.10;89.80;;;;;;4973631;28;20481;-87
2022/10/05 06:55:01;;;;;;;31.37;16.97;;;11.20;89.80;;;;;;4969355;28;20454;-87
2022/10/05 06:57:42;;;;;;;35.97;17.60;;;11.20;89.80;;;;;;4967496;28;20478;-87
2022/10/05 07:00:33;;;;;;;39.43;18.23;;;11.20;89.80;;;;;;4951428;28;21030;-87
2022/10/05 07:03:13;;;;;;;33.93;17.47;;;11.30;89.80;;;;;;4955930;28;20501;-87
2022/10/05 07:06:09;;;;;;;33.97;19.00;;;11.30;89.80;;;;;;4951309;28;20520;-87
2022/10/05 07:08:41;;;;;;;35.70;18.60;;;11.40;89.80;;;;;;4966889;28;20485;-87
2022/10/05 07:11:48;;;;;;;30.90;17.57;;;11.40;89.80;;;;;;4970389;28;20478;-87
2022/10/05 07:14:42;;;;;;;31.60;17.00;;;11.40;89.80;;;;;;4969934;28;20465;-87
2022/10/05 07:17:25;;;;;;;29.93;17.00;;;11.40;89.80;;;;;;4971027;28;20532;-87
2022/10/05 07:20:09;;;;;;;34.17;17.87;;;11.50;89.80;;;;;;4952463;28;20521;-87
2022/10/05 07:22:42;;;;;;;34.87;17.93;;;11.50;89.80;;;;;;4968573;28;20484;-87
2022/10/05 07:25:30;;;;;;;32.30;16.67;;;11.60;89.80;;;;;;4968394;28;20462;-87
2022/10/05 07:28:15;;;;;;;36.07;17.50;;;11.70;89.80;;;;;;4952358;28;20544;-87
2022/10/05 07:30:57;;;;;;;30.63;16.97;;;11.70;89.80;;;;;;4967761;28;20457;-87
2022/10/05 07:33:37;;;;;;;34.23;16.37;;;11.80;89.80;;;;;;4950512;28;20505;-87
2022/10/05 07:39:41;;;;;;;32.00;17.07;;;11.90;89.80;;;;;;4967350;28;20870;-87
2022/10/05 07:42:55;;;;;;;39.33;17.93;;;12.00;89.80;;;;;;4963100;28;20469;-87
2022/10/05 07:45:50;;;;;;;31.93;17.30;;;12.10;89.80;;;;;;4972200;28;20517;-87
2022/10/05 07:48:32;;;;;;;32.70;17.63;;;12.10;89.80;;;;;;4970222;28;20470;-87
2022/10/05 07:51:07;;;;;;;33.90;18.00;;;12.10;89.80;;;;;;4977202;28;20549;-87
2022/10/05 07:53:42;;;;;;;29.30;16.30;;;12.20;89.80;;;;;;4955650;28;20505;-87
2022/10/05 07:56:42;;;;;;;28.53;16.17;;;12.20;89.80;;;;;;4968913;28;20466;-87
2022/10/05 07:59:21;;;;;;;28.90;15.87;;;12.20;89.80;;;;;;4954623;28;20494;-86
2022/10/05 08:01:56;;;;;;;27.80;15.33;;;12.30;89.80;;;;;;4968141;28;20450;-86
2022/10/05 08:04:50;;;;;;;27.90;15.97;;;12.30;89.80;;;;;;4968432;28;20466;-89
2022/10/05 08:07:17;;;;;;;24.13;14.37;;;12.50;89.80;;;;;;4945908;28;20466;-89
2022/10/05 08:10:14;;;;;;;26.00;15.80;;;12.60;89.80;;;;;;4974926;28;20493;-89
2022/10/05 08:12:56;;;;;;;26.03;13.70;;;12.60;89.80;;;;;;4950786;28;20474;-90
2022/10/05 08:15:47;;;;;;;24.20;14.03;;;12.70;89.80;;;;;;4961914;28;20466;-89
2022/10/05 08:18:49;;;;;;;23.07;13.70;;;12.80;89.80;;;;;;4974375;28;20488;-89
2022/10/05 08:21:21;;;;;;;20.80;12.47;;;12.90;89.80;;;;;;4977403;28;20469;-89
2022/10/05 08:24:19;;;;;;;18.37;12.20;;;12.90;89.80;;;;;;4977024;28;20509;-90
2022/10/05 08:27:09;;;;;;;14.33;9.83;;;13.00;89.80;;;;;;4974738;28;20470;-88
2022/10/05 08:29:45;;;;;;;18.87;10.43;;;13.10;89.80;;;;;;4952585;28;20513;-88
2022/10/05 08:32:32;;;;;;;12.33;9.33;;;13.10;89.80;;;;;;4955534;28;20465;-88
2022/10/05 08:35:23;;;;;;;14.20;10.07;;;13.20;89.80;;;;;;4975190;28;20446;-88
2022/10/05 08:37:51;;;;;;;13.43;10.27;;;13.30;89.80;;;;;;4961117;28;20465;-88
2022/10/05 08:40:18;;;;;;;12.20;10.20;;;13.30;89.80;;;;;;4974863;28;20525;-89
2022/10/05 08:42:53;;;;;;;12.20;10.20;;;13.40;89.80;;;;;;4958226;28;21075;-89
2022/10/05 08:45:48;;;;;;;12.40;11.10;;;13.50;89.60;;;;;;4955887;28;20474;-88
2022/10/05 08:48:45;;;;;;;10.70;9.23;;;13.50;89.50;;;;;;4949149;28;20487;-88
2022/10/05 08:51:30;;;;;;;12.47;9.70;;;13.50;89.40;;;;;;4954715;28;20473;-88
2022/10/05 08:54:13;;;;;;;13.97;10.73;;;13.60;89.30;;;;;;4958428;28;20468;-88
2022/10/05 08:56:48;;;;;;;13.73;11.10;;;13.60;89.10;;;;;;4954399;28;20968;-88
2022/10/05 08:59:37;;;;;;;10.80;9.70;;;13.70;89.10;;;;;;4956512;28;20500;-88
2022/10/05 09:02:27;;;;;;;14.00;10.17;;;13.80;89.10;;;;;;4972738;28;21277;-88
2022/10/05 09:05:15;;;;;;;13.13;10.77;;;13.80;89.10;;;;;;4974778;28;20466;-88
2022/10/05 09:08:20;;;;;;;13.67;10.70;;;13.90;89.20;;;;;;4970115;28;20474;-88
2022/10/05 09:11:05;;;;;;;11.80;9.43;;;13.90;89.10;;;;;;4972572;28;20475;-88
2022/10/05 09:13:50;;;;;;;12.97;10.17;;;14.00;88.80;;;;;;4974928;28;20493;-88
2022/10/05 09:20:25;;;;;;;14.20;9.43;;;14.10;88.60;;;;;;4977443;28;20490;-49
2022/10/05 09:23:07;;;;;;;13.57;9.37;;;14.10;88.50;;;;;;4940928;28;20496;-50
2022/10/05 09:25:54;;;;;;;22.80;11.23;;;14.10;88.90;;;;;;4978651;28;20523;-50
2022/10/05 09:28:54;;;;;;;12.53;10.13;;;14.20;88.90;;;;;;4968583;28;20852;-50
2022/10/05 09:31:44;;;;;;;11.63;9.90;;;14.30;88.70;;;;;;4979657;28;21053;-50
2022/10/05 09:34:17;;;;;;;11.20;9.27;;;14.30;88.90;;;;;;4976965;28;20457;-50
2022/10/05 09:36:47;;;;;;;12.87;9.60;;;14.40;88.80;;;;;;4969747;28;21038;-49
2022/10/05 09:39:28;;;;;;;12.97;8.33;;;14.40;88.70;;;;;;4958305;28;20515;-49
2022/10/05 09:42:16;;;;;;;11.57;9.20;;;14.50;88.40;;;;;;4976319;28;20555;-49
2022/10/05 09:45:02;;;;;;;9.83;8.80;;;14.60;88.50;;;;;;4971813;28;20552;-49
2022/10/05 09:47:44;;;;;;;10.13;8.23;;;14.70;88.50;;;;;;4968221;28;20624;-50
2022/10/05 09:50:48;;;;;;;11.03;8.20;;;14.70;88.30;;;;;;4976005;28;20496;-50
2022/10/05 09:53:49;;;;;;;9.87;7.83;;;14.80;88.20;;;;;;4975277;28;20472;-49
2022/10/05 09:56:33;;;;;;;8.87;8.00;;;14.80;88.30;;;;;;4964823;28;20905;-50
2022/10/05 09:59:11;;;;;;;8.80;7.90;;;14.90;88.20;;;;;;4978482;28;20520;-50
2022/10/05 10:01:47;;;;;;;9.77;7.87;;;14.90;88.10;;;;;;4960475;28;20843;-49
2022/10/05 10:04:27;;;;;;;11.33;8.83;;;15.00;88.20;;;;;;4968312;28;20460;-50
2022/10/05 10:07:12;;;;;;;9.00;8.03;;;15.00;87.80;;;;;;4961727;28;21041;-50
2022/10/05 10:10:19;;;;;;;10.10;8.27;;;15.00;87.80;;;;;;4970030;28;20521;-50
2022/10/05 10:13:23;;;;;;;10.37;8.57;;;15.00;88.00;;;;;;4977166;28;21035;-50
2022/10/05 10:16:05;;;;;;;8.20;7.33;;;15.10;88.10;;;;;;4976004;28;20552;-49
2022/10/05 10:19:03;;;;;;;9.87;7.13;;;15.20;88.50;;;;;;4977479;28;20477;-50
2022/10/05 10:21:45;;;;;;;7.53;6.37;;;15.40;88.50;;;;;;4978801;28;20548;-50
2022/10/05 10:24:15;;;;;;;6.53;6.00;;;15.60;88.10;;;;;;4977433;28;20465;-50
2022/10/05 10:27:08;;;;;;;7.30;5.30;;;15.70;87.20;;;;;;4975968;28;20545;-50
2022/10/05 10:30:17;;;;;;;5.60;5.10;;;15.80;86.70;;;;;;4951761;28;20553;-50
2022/10/05 10:32:55;;;;;;;5.13;4.63;;;16.00;86.00;;;;;;4976528;28;20461;-50
2022/10/05 10:36:00;;;;;;;6.40;4.80;;;16.20;85.90;;;;;;4971639;28;20461;-50
2022/10/05 10:39:02;;;;;;;4.90;4.50;;;16.30;85.00;;;;;;4973294;28;20469;-50
2022/10/05 10:41:54;;;;;;;6.70;6.00;;;16.30;84.50;;;;;;4959125;28;20496;-50
2022/10/05 10:44:46;;;;;;;6.20;5.17;;;16.20;84.30;;;;;;4979180;28;20553;-50
2022/10/05 10:47:31;;;;;;;6.73;6.03;;;16.20;84.50;;;;;;4959837;28;20916;-50
2022/10/05 10:50:29;;;;;;;6.33;4.57;;;16.30;84.40;;;;;;4974104;28;20557;-50
2022/10/05 10:53:13;;;;;;;6.20;5.40;;;16.20;84.50;;;;;;4976211;28;21036;-50
2022/10/05 10:56:05;;;;;;;6.80;4.73;;;16.20;84.80;;;;;;4975382;28;20892;-50
2022/10/05 10:58:43;;;;;;;5.43;4.93;;;16.40;84.90;;;;;;4961495;28;20547;-50
2022/10/05 11:01:46;;;;;;;5.03;4.57;;;16.50;84.00;;;;;;4963431;28;20684;-50
2022/10/05 11:04:53;;;;;;;5.97;4.70;;;16.50;83.40;;;;;;4940244;28;20463;-50
2022/10/05 11:07:43;;;;;;;6.03;5.03;;;16.60;83.20;;;;;;4969341;28;20555;-50
2022/10/05 11:10:19;;;;;;;4.73;3.60;;;16.60;83.10;;;;;;4965435;28;20571;-50
2022/10/05 11:13:00;;;;;;;4.70;4.30;;;16.60;83.30;;;;;;4970978;28;20548;-50
2022/10/05 11:16:00;;;;;;;6.67;4.90;;;16.50;83.30;;;;;;4976909;28;20464;-50
2022/10/05 11:18:49;;;;;;;4.70;3.90;;;16.50;83.80;;;;;;4960672;28;20485;-50
2022/10/05 11:21:35;;;;;;;4.20;3.80;;;16.50;83.90;;;;;;4974642;28;20520;-50
2022/10/05 11:24:27;;;;;;;5.10;4.60;;;16.50;83.80;;;;;;4962186;28;20497;-50
2022/10/05 11:27:28;;;;;;;4.70;4.30;;;16.60;83.70;;;;;;4959924;28;20470;-50
2022/10/05 11:30:18;;;;;;;8.00;4.70;;;16.60;83.70;;;;;;4974454;28;20762;-50
2022/10/05 11:32:59;;;;;;;4.70;3.37;;;16.60;83.60;;;;;;4976507;28;20526;-50
2022/10/05 11:35:44;;;;;;;4.90;4.40;;;16.60;83.80;;;;;;4971145;28;20493;-50
2022/10/05 11:38:42;;;;;;;4.93;4.00;;;16.70;83.90;;;;;;4977530;28;20505;-51
2022/10/05 11:41:33;;;;;;;4.47;4.07;;;16.70;84.10;;;;;;4979200;28;20516;-50
2022/10/05 11:44:27;;;;;;;4.40;3.70;;;16.80;83.60;;;;;;4982267;28;20500;-50
2022/10/05 11:47:15;;;;;;;5.90;3.80;;;16.80;83.50;;;;;;4976562;28;20550;-50
2022/10/05 11:49:53;;;;;;;4.90;3.90;;;16.90;83.50;;;;;;4954803;28;20462;-50
2022/10/05 11:52:36;;;;;;;6.30;3.43;;;16.90;83.60;;;;;;4964571;28;20457;-50
2022/10/05 11:55:21;;;;;;;4.40;4.00;;;17.00;83.40;;;;;;4958589;28;20523;-50
2022/10/05 11:57:54;;;;;;;8.20;7.40;;;17.00;83.60;;;;;;4974071;28;20564;-50
2022/10/05 12:00:23;;;;;;;4.57;3.83;;;16.90;83.60;;;;;;4964951;28;20588;-50
2022/10/05 12:03:20;;;;;;;5.03;3.63;;;17.00;83.60;;;;;;4967338;28;20832;-50
2022/10/05 12:05:56;;;;;;;4.03;3.73;;;17.00;83.80;;;;;;4976847;28;20937;-50
2022/10/05 12:08:41;;;;;;;4.30;3.90;;;17.00;83.80;;;;;;4963714;28;20512;-50
2022/10/05 12:11:26;;;;;;;4.20;3.80;;;17.00;83.90;;;;;;4963246;28;20881;-50
2022/10/05 12:14:23;;;;;;;4.33;3.93;;;17.00;83.90;;;;;;4964301;28;20474;-50
2022/10/05 12:17:08;;;;;;;4.83;4.43;;;17.00;84.00;;;;;;4983119;28;21059;-50
2022/10/05 12:19:42;;;;;;;6.03;4.70;;;17.00;84.20;;;;;;4982453;28;20519;-49
2022/10/05 12:22:09;;;;;;;5.93;4.53;;;17.00;84.30;;;;;;4967514;28;20512;-50
2022/10/05 12:24:36;;;;;;;4.70;3.80;;;17.00;84.10;;;;;;4973182;28;20457;-50
2022/10/05 12:27:21;;;;;;;5.73;4.57;;;17.10;84.10;;;;;;4975917;28;20469;-50
2022/10/05 12:30:35;;;;;;;5.57;4.53;;;17.10;84.30;;;;;;4978067;28;20488;-50
2022/10/05 12:33:15;;;;;;;4.17;3.77;;;17.10;84.40;;;;;;4972550;28;20525;-50
2022/10/05 12:36:12;;;;;;;5.60;4.50;;;17.10;84.30;;;;;;4980360;28;21007;-50
2022/10/05 12:38:53;;;;;;;8.23;4.43;;;17.10;84.50;;;;;;4981947;28;20492;-50
2022/10/05 12:41:20;;;;;;;4.77;4.37;;;17.10;84.30;;;;;;4977582;28;20543;-50
2022/10/05 12:44:01;;;;;;;5.30;4.67;;;17.10;84.20;;;;;;4975912;28;20998;-50
2022/10/05 12:46:40;;;;;;;5.90;4.60;;;17.20;84.60;;;;;;4976413;28;20488;-50
2022/10/05 12:49:31;;;;;;;5.73;4.63;;;17.20;84.40;;;;;;4981423;28;20468;-50
2022/10/05 12:52:00;;;;;;;3.93;3.63;;;17.30;83.50;;;;;;4978548;28;20461;-50
2022/10/05 12:54:36;;;;;;;4.17;3.63;;;17.30;83.50;;;;;;4973448;28;21017;-50
2022/10/05 12:57:34;;;;;;;5.60;4.10;;;17.40;83.40;;;;;;4978418;28;20792;-50
2022/10/05 13:00:19;;;;;;;5.27;4.77;;;17.40;83.40;;;;;;4965959;28;20474;-50
2022/10/05 13:02:57;;;;;;;6.77;3.90;;;17.50;83.10;;;;;;4980846;28;20454;-50
2022/10/05 13:05:43;;;;;;;8.33;4.90;;;17.60;82.80;;;;;;4981745;28;21095;-50
2022/10/05 13:08:22;;;;;;;5.80;4.40;;;17.60;82.80;;;;;;4971556;28;21188;-50
2022/10/05 13:11:15;;;;;;;9.23;6.23;;;17.60;82.80;;;;;;4976074;28;20524;-50
2022/10/05 13:13:55;;;;;;;7.20;4.97;;;;;;;;;;4982698;28;20867;-51
2022/10/05 13:16:32;;;;;;;6.43;4.77;;;17.70;82.70;;;;;;4981096;28;20606;-50
2022/10/05 13:19:08;;;;;;;5.23;4.60;;;17.80;82.40;;;;;;4980820;28;20563;-50
2022/10/05 13:54:13;;;;;;;6.50;4.77;;;17.10;84.70;;;;;;5102227;27;20332;-46
2022/10/05 13:56:47;;;;;;;4.57;4.17;;;17.80;83.20;;;;;;5039302;28;20469;-46
2022/10/05 13:59:18;;;;;;;4.60;3.97;;;17.90;82.60;;;;;;5093666;28;20480;-46
2022/10/05 14:01:58;;;;;;;5.13;4.30;;;18.00;82.40;;;;;;5077980;28;20542;-46
2022/10/05 14:04:42;;;;;;;4.33;3.93;;;18.00;82.50;;;;;;5091033;28;20456;-47
2022/10/05 14:07:30;;;;;;;5.50;3.67;;;18.00;82.50;;;;;;5073166;28;20483;-46
2022/10/05 14:09:58;;;;;;;4.70;3.67;;;18.10;82.60;;;;;;5087582;28;20547;-46
2022/10/05 14:12:26;;;;;;;3.70;3.40;;;18.10;82.10;;;;;;5070742;28;20464;-46
2022/10/05 14:14:55;;;;;;;3.87;3.43;;;18.20;81.70;;;;;;5061693;28;20464;-45
2022/10/05 14:17:42;;;;;;;4.70;3.60;;;18.20;81.60;;;;;;5074464;28;20456;-45
2022/10/05 14:20:25;;;;;;;4.73;3.50;;;18.20;81.80;;;;;;5090034;28;20456;-46
2022/10/05 14:23:01;;;;;;;8.03;3.90;;;18.30;81.60;;;;;;5089546;28;20546;-45
2022/10/05 14:25:29;;;;;;;5.00;3.33;;;18.30;81.10;;;;;;5091525;28;20462;-45
2022/10/05 14:28:01;;;;;;;3.80;3.50;;;18.40;81.00;;;;;;5089234;28;20495;-45
2022/10/05 14:30:30;;;;;;;3.40;3.10;;;18.40;80.90;;;;;;5088696;28;21017;-45
